createdAt,value
2022-07-28T00:01:08.205Z,51.30
2022-07-28T00:03:35.282Z,51.20
2022-07-28T00:06:02.493Z,51.30
2022-07-28T00:08:29.576Z,51.40
2022-07-28T00:10:56.710Z,51.40
2022-07-28T00:13:23.943Z,51.30
2022-07-28T00:15:51.148Z,51.40
2022-07-28T00:18:18.286Z,51.40
2022-07-28T00:20:45.433Z,51.40
2022-07-28T00:23:12.516Z,52.00
2022-07-28T00:25:39.645Z,51.40
2022-07-28T00:28:06.785Z,51.40
2022-07-28T00:30:33.915Z,51.40
2022-07-28T00:33:01.057Z,51.40
2022-07-28T00:35:30.500Z,51.40
2022-07-28T00:37:58.737Z,51.50
2022-07-28T00:40:47.246Z,51.40
2022-07-28T00:43:15.439Z,51.50
2022-07-28T00:45:42.956Z,51.50
2022-07-28T00:48:10.040Z,51.50
2022-07-28T00:50:40.124Z,51.50
2022-07-28T00:53:07.484Z,51.50
2022-07-28T00:56:04.084Z,51.50
2022-07-28T00:58:23.302Z,51.50
2022-07-28T01:00:50.396Z,51.80
2022-07-28T01:03:18.358Z,51.50
2022-07-28T01:06:16.707Z,51.50
2022-07-28T01:09:14.071Z,51.50
2022-07-28T01:12:20.881Z,51.50
2022-07-28T01:14:56.513Z,51.50
2022-07-28T01:17:48.591Z,51.50
2022-07-28T01:20:26.028Z,51.50
2022-07-28T01:23:32.844Z,51.50
2022-07-28T01:26:32.571Z,51.50
2022-07-28T01:29:21.985Z,51.50
2022-07-28T01:31:59.840Z,51.50
2022-07-28T01:34:33.453Z,51.60
2022-07-28T01:37:10.372Z,51.60
2022-07-28T01:39:40.960Z,51.60
2022-07-28T01:42:10.404Z,51.60
2022-07-28T01:44:41.873Z,51.50
2022-07-28T01:47:10.699Z,51.60
2022-07-28T01:49:39.141Z,51.60
2022-07-28T01:52:08.358Z,51.60
2022-07-28T01:54:38.907Z,51.60
2022-07-28T01:57:08.942Z,51.60
2022-07-28T01:59:40.148Z,51.70
2022-07-28T02:02:09.151Z,51.60
2022-07-28T02:04:39.580Z,51.60
2022-07-28T02:07:08.027Z,51.70
2022-07-28T02:09:36.231Z,51.60
2022-07-28T02:12:04.955Z,51.70
2022-07-28T02:14:35.269Z,51.70
2022-07-28T02:17:13.194Z,51.70
2022-07-28T02:19:43.017Z,51.70
2022-07-28T02:22:11.374Z,51.70
2022-07-28T02:24:40.885Z,51.70
2022-07-28T02:27:36.122Z,51.70
2022-07-28T02:30:13.156Z,51.70
2022-07-28T02:32:58.897Z,51.70
2022-07-28T02:35:50.680Z,51.70
2022-07-28T02:38:28.268Z,51.70
2022-07-28T02:40:59.823Z,51.70
2022-07-28T02:43:49.988Z,51.70
2022-07-28T02:46:23.549Z,51.70
2022-07-28T02:48:56.854Z,51.70
2022-07-28T02:51:28.775Z,51.70
2022-07-28T02:53:57.052Z,51.70
2022-07-28T02:56:25.505Z,51.70
2022-07-28T02:58:54.399Z,51.80
2022-07-28T03:01:22.699Z,51.70
2022-07-28T03:03:51.350Z,51.70
2022-07-28T03:06:26.638Z,51.70
2022-07-28T03:08:57.599Z,51.80
2022-07-28T03:11:24.946Z,51.80
2022-07-28T03:13:52.232Z,51.80
2022-07-28T03:16:19.542Z,51.80
2022-07-28T03:18:46.649Z,51.80
2022-07-28T03:21:13.721Z,51.80
2022-07-28T03:23:44.132Z,51.90
2022-07-28T03:26:30.829Z,51.80
2022-07-28T03:28:59.606Z,51.90
2022-07-28T03:31:28.648Z,51.90
2022-07-28T03:33:56.131Z,51.90
2022-07-28T03:36:35.850Z,51.90
2022-07-28T03:39:06.618Z,51.80
2022-07-28T03:41:34.649Z,51.90
2022-07-28T03:44:03.070Z,51.80
2022-07-28T03:46:30.372Z,51.90
2022-07-28T03:48:57.531Z,51.90
2022-07-28T03:51:25.727Z,51.90
2022-07-28T03:53:52.888Z,51.90
2022-07-28T03:56:19.979Z,51.90
2022-07-28T03:58:47.279Z,51.90
2022-07-28T04:01:14.632Z,51.80
2022-07-28T04:03:43.734Z,51.80
2022-07-28T04:06:15.539Z,51.80
2022-07-28T04:08:45.217Z,51.80
2022-07-28T04:11:12.800Z,51.80
2022-07-28T04:13:40.089Z,51.70
2022-07-28T04:16:07.665Z,51.80
2022-07-28T04:18:35.673Z,51.80
2022-07-28T04:21:02.847Z,51.70
2022-07-28T04:23:30.960Z,51.70
2022-07-28T04:25:58.176Z,51.70
2022-07-28T04:28:25.531Z,51.70
2022-07-28T04:30:52.755Z,51.70
2022-07-28T04:33:20.138Z,51.70
2022-07-28T04:35:47.545Z,51.60
2022-07-28T04:38:15.216Z,51.60
2022-07-28T04:40:42.699Z,51.60
2022-07-28T04:43:10.563Z,51.60
2022-07-28T04:45:37.847Z,51.50
2022-07-28T04:48:05.645Z,51.50
2022-07-28T04:50:33.175Z,51.50
2022-07-28T04:53:00.356Z,51.50
2022-07-28T04:55:27.611Z,51.50
2022-07-28T04:57:54.749Z,51.40
2022-07-28T05:00:22.765Z,51.40
2022-07-28T05:02:51.553Z,51.30
2022-07-28T05:05:19.011Z,51.30
2022-07-28T05:07:46.191Z,51.30
2022-07-28T05:10:13.663Z,51.40
2022-07-28T05:12:40.898Z,51.50
2022-07-28T05:15:09.643Z,51.50
2022-07-28T05:17:37.298Z,51.80
2022-07-28T05:20:06.043Z,52.10
2022-07-28T05:22:47.165Z,53.60
2022-07-28T05:25:21.068Z,53.90
2022-07-28T05:27:49.250Z,53.50
2022-07-28T05:30:17.442Z,54.00
2022-07-28T05:32:45.773Z,53.60
2022-07-28T05:35:13.166Z,54.00
2022-07-28T05:37:40.612Z,54.60
2022-07-28T05:40:11.989Z,53.90
2022-07-28T05:42:40.153Z,53.60
2022-07-28T05:45:16.368Z,53.30
2022-07-28T05:47:49.018Z,53.30
2022-07-28T05:50:17.530Z,53.20
2022-07-28T05:52:47.078Z,53.20
2022-07-28T05:55:14.871Z,53.10
2022-07-28T05:57:42.257Z,53.50
2022-07-28T06:00:12.778Z,53.50
2022-07-28T06:02:41.340Z,53.90
2022-07-28T06:05:09.098Z,54.90
2022-07-28T06:07:42.940Z,55.40
2022-07-28T06:10:12.578Z,55.40
2022-07-28T06:12:42.213Z,56.00
2022-07-28T06:15:14.628Z,56.30
2022-07-28T06:17:42.342Z,56.30
2022-07-28T06:20:10.989Z,57.00
2022-07-28T06:22:43.361Z,56.80
2022-07-28T06:25:18.644Z,56.80
2022-07-28T06:27:46.752Z,56.90
2022-07-28T06:30:14.376Z,57.30
2022-07-28T06:32:41.853Z,57.20
2022-07-28T06:35:09.402Z,57.30
2022-07-28T06:37:36.683Z,57.40
2022-07-28T06:40:04.457Z,57.20
2022-07-28T06:42:31.873Z,57.70
2022-07-28T06:45:00.175Z,57.70
2022-07-28T06:47:27.623Z,58.00
2022-07-28T06:49:54.714Z,57.50
2022-07-28T06:52:22.326Z,57.30
2022-07-28T06:54:52.254Z,58.00
2022-07-28T06:57:22.385Z,57.80
2022-07-28T06:59:55.671Z,57.70
2022-07-28T07:02:26.398Z,57.50
2022-07-28T07:04:55.381Z,58.00
2022-07-28T07:07:23.771Z,58.30
2022-07-28T07:09:51.695Z,58.80
2022-07-28T07:12:18.888Z,59.00
2022-07-28T07:14:46.214Z,59.10
2022-07-28T07:17:13.406Z,59.80
2022-07-28T07:19:40.615Z,59.20
2022-07-28T07:22:07.730Z,59.40
2022-07-28T07:24:35.488Z,58.90
2022-07-28T07:27:02.623Z,58.80
2022-07-28T07:29:30.350Z,59.20
2022-07-28T07:31:58.796Z,59.00
2022-07-28T07:34:26.538Z,58.80
2022-07-28T07:36:53.643Z,59.00
2022-07-28T07:39:20.925Z,59.10
2022-07-28T07:41:48.094Z,58.50
2022-07-28T07:44:17.144Z,58.80
2022-07-28T07:46:44.661Z,58.80
2022-07-28T07:49:11.895Z,58.60
2022-07-28T07:51:38.997Z,58.60
2022-07-28T07:54:06.117Z,58.40
2022-07-28T07:56:35.560Z,58.60
2022-07-28T07:59:02.685Z,58.90
2022-07-28T08:01:30.028Z,58.40
2022-07-28T08:03:59.702Z,58.40
2022-07-28T08:06:28.117Z,58.40
2022-07-28T08:08:56.468Z,58.10
2022-07-28T08:11:23.842Z,58.20
2022-07-28T08:13:50.952Z,58.00
2022-07-28T08:16:18.125Z,57.80
2022-07-28T08:18:45.347Z,57.60
2022-07-28T08:21:13.395Z,57.40
2022-07-28T08:23:40.681Z,57.50
2022-07-28T08:26:08.171Z,57.80
2022-07-28T08:28:35.373Z,57.50
2022-07-28T08:31:03.777Z,57.30
2022-07-28T08:33:31.949Z,57.60
2022-07-28T08:36:00.262Z,57.20
2022-07-28T08:38:27.493Z,57.10
2022-07-28T08:40:57.372Z,57.30
2022-07-28T08:43:38.490Z,57.20
2022-07-28T08:46:07.091Z,57.10
2022-07-28T08:48:36.478Z,56.90
2022-07-28T08:51:07.488Z,56.90
2022-07-28T08:53:36.474Z,56.90
2022-07-28T08:56:06.388Z,56.70
2022-07-28T08:58:35.559Z,56.70
2022-07-28T09:01:04.194Z,56.90
2022-07-28T09:03:31.517Z,57.00
2022-07-28T09:05:58.788Z,57.00
2022-07-28T09:08:26.389Z,56.70
2022-07-28T09:10:53.806Z,57.00
2022-07-28T09:13:21.485Z,57.00
2022-07-28T09:15:49.157Z,57.00
2022-07-28T09:18:18.024Z,57.30
2022-07-28T09:20:45.608Z,58.00
2022-07-28T09:23:42.353Z,57.40
2022-07-28T09:26:12.611Z,57.30
2022-07-28T09:29:01.949Z,57.10
2022-07-28T09:31:30.754Z,56.90
2022-07-28T09:34:03.355Z,57.20
2022-07-28T09:36:38.720Z,57.00
2022-07-28T09:39:06.121Z,57.20
2022-07-28T09:41:55.318Z,57.30
2022-07-28T09:44:24.448Z,56.80
2022-07-28T09:46:51.856Z,57.10
2022-07-28T09:49:19.558Z,57.30
2022-07-28T09:52:03.769Z,57.10
2022-07-28T09:54:31.699Z,57.00
2022-07-28T09:56:58.997Z,57.00
2022-07-28T09:59:26.233Z,56.50
2022-07-28T10:01:59.931Z,56.70
2022-07-28T10:04:35.826Z,56.50
2022-07-28T10:07:15.008Z,56.50
2022-07-28T10:09:42.410Z,56.50
2022-07-28T10:12:25.000Z,56.40
2022-07-28T10:14:55.587Z,56.40
2022-07-28T10:17:35.608Z,56.40
2022-07-28T10:20:06.596Z,56.40
2022-07-28T10:22:42.927Z,56.40
2022-07-28T10:25:14.822Z,56.30
2022-07-28T10:27:46.037Z,56.20
2022-07-28T10:30:14.372Z,56.20
2022-07-28T10:32:43.969Z,55.80
2022-07-28T10:35:17.246Z,56.00
2022-07-28T10:37:53.721Z,55.60
2022-07-28T10:40:26.824Z,55.60
2022-07-28T10:42:53.978Z,55.60
2022-07-28T10:45:22.085Z,55.40
2022-07-28T10:47:49.857Z,55.50
2022-07-28T10:50:18.339Z,55.40
2022-07-28T10:52:49.962Z,55.70
2022-07-28T10:55:48.095Z,56.00
2022-07-28T10:58:29.508Z,56.00
2022-07-28T11:01:04.710Z,55.90
2022-07-28T11:03:45.028Z,56.10
2022-07-28T11:06:35.833Z,55.80
2022-07-28T11:09:21.557Z,55.60
2022-07-28T11:11:53.794Z,55.70
2022-07-28T11:14:37.680Z,56.10
2022-07-28T11:17:19.891Z,55.90
2022-07-28T11:20:16.946Z,56.00
2022-07-28T11:22:43.786Z,56.20
2022-07-28T11:25:19.021Z,56.30
2022-07-28T11:28:00.062Z,56.40
2022-07-28T11:30:50.452Z,56.50
2022-07-28T11:33:17.870Z,56.40
2022-07-28T11:35:57.606Z,56.60
2022-07-28T11:38:26.440Z,56.70
2022-07-28T11:40:56.312Z,56.80
2022-07-28T11:43:37.701Z,56.60
2022-07-28T11:46:26.815Z,56.70
2022-07-28T11:49:16.929Z,56.40
2022-07-28T11:52:08.434Z,56.30
2022-07-28T11:54:37.046Z,58.50
2022-07-28T11:57:05.166Z,58.20
2022-07-28T11:59:44.527Z,57.80
2022-07-28T12:02:19.218Z,57.30
2022-07-28T12:04:54.267Z,56.90
2022-07-28T12:07:33.370Z,54.60
2022-07-28T12:10:01.586Z,54.30
2022-07-28T12:12:29.246Z,54.50
2022-07-28T12:14:57.543Z,54.60
2022-07-28T12:17:33.326Z,54.90
2022-07-28T12:20:11.474Z,55.00
2022-07-28T12:22:54.267Z,55.10
2022-07-28T12:25:21.470Z,55.30
2022-07-28T12:27:49.972Z,55.50
2022-07-28T12:30:26.962Z,55.30
2022-07-28T12:32:56.499Z,55.20
2022-07-28T12:35:25.221Z,55.40
2022-07-28T12:37:52.689Z,55.40
2022-07-28T12:40:27.695Z,55.40
2022-07-28T12:42:54.997Z,55.30
2022-07-28T12:45:22.321Z,55.20
2022-07-28T12:47:49.573Z,55.40
2022-07-28T12:50:20.131Z,55.30
2022-07-28T12:53:10.262Z,55.30
2022-07-28T12:55:38.896Z,55.30
2022-07-28T12:58:07.318Z,55.40
2022-07-28T13:00:36.711Z,55.40
2022-07-28T13:03:25.684Z,55.40
2022-07-28T13:06:03.911Z,55.30
2022-07-28T13:08:46.264Z,55.50
2022-07-28T13:11:42.621Z,55.60
2022-07-28T13:14:03.971Z,55.70
2022-07-28T13:16:31.252Z,55.50
2022-07-28T13:19:04.637Z,55.70
2022-07-28T13:21:58.707Z,56.00
2022-07-28T13:24:29.197Z,56.00
2022-07-28T13:26:57.193Z,56.00
2022-07-28T13:29:24.534Z,56.10
2022-07-28T13:31:54.853Z,56.10
2022-07-28T13:34:22.529Z,55.80
2022-07-28T13:36:49.819Z,55.80
2022-07-28T13:39:17.080Z,55.90
2022-07-28T13:41:57.209Z,55.70
2022-07-28T13:44:28.037Z,55.60
2022-07-28T13:46:56.565Z,55.50
2022-07-28T13:49:24.278Z,55.60
2022-07-28T13:51:51.708Z,55.80
2022-07-28T13:54:20.926Z,55.20
2022-07-28T13:56:48.696Z,55.00
2022-07-28T13:59:17.019Z,54.80
2022-07-28T14:01:49.696Z,54.80
2022-07-28T14:04:19.084Z,54.70
2022-07-28T14:06:49.055Z,54.60
2022-07-28T14:09:18.305Z,54.50
2022-07-28T14:11:49.944Z,54.40
2022-07-28T14:14:25.055Z,54.40
2022-07-28T14:16:54.342Z,54.40
2022-07-28T14:19:39.188Z,54.40
2022-07-28T14:22:13.112Z,54.30
2022-07-28T14:24:42.904Z,54.40
2022-07-28T14:27:11.423Z,54.60
2022-07-28T14:29:39.528Z,54.60
2022-07-28T14:32:07.386Z,54.90
2022-07-28T14:34:35.000Z,55.00
2022-07-28T14:37:08.618Z,55.20
2022-07-28T14:39:37.553Z,55.30
2022-07-28T14:42:05.787Z,55.10
2022-07-28T14:44:33.389Z,54.80
2022-07-28T14:47:00.548Z,55.00
2022-07-28T14:49:28.354Z,54.60
2022-07-28T14:51:57.584Z,54.60
2022-07-28T14:54:25.082Z,56.50
2022-07-28T14:56:52.178Z,57.50
2022-07-28T14:59:20.370Z,58.60
2022-07-28T15:01:48.822Z,59.40
2022-07-28T15:04:17.442Z,60.30
2022-07-28T15:06:45.062Z,60.90
2022-07-28T15:09:12.180Z,61.30
2022-07-28T15:11:41.352Z,61.80
2022-07-28T15:14:08.783Z,61.80
2022-07-28T15:16:36.254Z,62.00
2022-07-28T15:19:03.524Z,62.10
2022-07-28T15:21:36.180Z,62.50
2022-07-28T15:24:04.382Z,62.10
2022-07-28T15:26:31.511Z,62.60
2022-07-28T15:28:58.687Z,62.30
2022-07-28T15:31:26.278Z,62.30
2022-07-28T15:33:58.160Z,61.70
2022-07-28T15:36:26.310Z,62.10
2022-07-28T15:38:54.453Z,61.90
2022-07-28T15:41:21.629Z,61.20
2022-07-28T15:43:49.037Z,61.10
2022-07-28T15:46:16.726Z,61.10
2022-07-28T15:48:44.971Z,60.80
2022-07-28T15:51:12.179Z,60.30
2022-07-28T15:53:39.582Z,59.90
2022-07-28T15:56:06.878Z,59.60
2022-07-28T15:58:35.275Z,59.30
2022-07-28T16:01:02.374Z,58.90
2022-07-28T16:03:30.470Z,58.50
2022-07-28T16:05:58.945Z,58.30
2022-07-28T16:08:26.814Z,58.00
2022-07-28T16:10:55.161Z,57.10
2022-07-28T16:13:34.280Z,56.30
2022-07-28T16:16:07.048Z,55.50
2022-07-28T16:18:35.001Z,54.70
2022-07-28T16:21:02.457Z,54.20
2022-07-28T16:23:29.870Z,53.60
2022-07-28T16:25:56.969Z,53.30
2022-07-28T16:28:24.064Z,52.90
2022-07-28T16:30:51.196Z,52.40
2022-07-28T16:33:18.583Z,51.90
2022-07-28T16:35:46.143Z,51.50
2022-07-28T16:38:13.807Z,51.20
2022-07-28T16:40:41.050Z,50.70
2022-07-28T16:43:08.137Z,50.30
2022-07-28T16:45:36.121Z,49.90
2022-07-28T16:48:04.141Z,49.60
2022-07-28T16:50:32.375Z,49.40
2022-07-28T16:53:00.577Z,49.20
2022-07-28T16:55:27.888Z,49.00
2022-07-28T16:57:54.995Z,48.90
2022-07-28T17:00:23.941Z,48.70
2022-07-28T17:02:51.085Z,48.60
2022-07-28T17:05:18.352Z,48.50
2022-07-28T17:07:46.300Z,48.40
2022-07-28T17:10:15.450Z,48.40
2022-07-28T17:12:49.704Z,48.20
2022-07-28T17:15:19.522Z,48.00
2022-07-28T17:17:50.887Z,48.00
2022-07-28T17:20:19.066Z,47.70
2022-07-28T17:22:46.212Z,47.80
2022-07-28T17:25:43.628Z,47.70
2022-07-28T17:28:00.711Z,47.60
2022-07-28T17:30:29.720Z,47.50
2022-07-28T17:32:59.284Z,47.40
2022-07-28T17:35:31.664Z,47.50
2022-07-28T17:38:02.644Z,47.30
2022-07-28T17:40:29.820Z,48.00
2022-07-28T17:42:56.993Z,47.40
2022-07-28T17:45:24.551Z,47.50
2022-07-28T17:47:51.974Z,47.40
2022-07-28T17:50:19.935Z,47.40
2022-07-28T17:52:47.537Z,47.50
2022-07-28T17:55:37.907Z,47.50
2022-07-28T17:58:29.436Z,47.60
2022-07-28T18:01:10.641Z,47.70
2022-07-28T18:03:56.928Z,47.70
2022-07-28T18:06:25.742Z,47.80
2022-07-28T18:08:52.814Z,47.90
2022-07-28T18:11:20.138Z,47.90
2022-07-28T18:14:03.656Z,47.90
2022-07-28T18:16:32.354Z,48.00
2022-07-28T18:18:59.396Z,48.00
2022-07-28T18:21:26.834Z,48.10
2022-07-28T18:23:56.230Z,48.70
2022-07-28T18:26:23.456Z,48.10
2022-07-28T18:28:50.820Z,48.20
2022-07-28T18:31:18.030Z,48.20
2022-07-28T18:33:45.205Z,48.20
2022-07-28T18:36:12.376Z,48.20
2022-07-28T18:38:40.150Z,48.80
2022-07-28T18:41:07.365Z,48.20
2022-07-28T18:43:34.496Z,48.20
2022-07-28T18:46:04.414Z,48.20
2022-07-28T18:48:31.597Z,48.20
2022-07-28T18:50:59.040Z,48.30
2022-07-28T18:53:26.818Z,48.30
2022-07-28T18:55:54.259Z,48.20
2022-07-28T18:58:21.359Z,48.30
2022-07-28T19:00:49.031Z,48.30
2022-07-28T19:03:16.274Z,48.30
2022-07-28T19:05:46.189Z,48.30
2022-07-28T19:08:13.743Z,48.40
2022-07-28T19:10:40.996Z,48.30
2022-07-28T19:13:09.313Z,48.40
2022-07-28T19:15:41.826Z,48.30
2022-07-28T19:18:11.553Z,48.40
2022-07-28T19:20:44.789Z,48.40
2022-07-28T19:23:11.903Z,48.40
2022-07-28T19:25:39.933Z,48.40
2022-07-28T19:28:07.087Z,48.50
2022-07-28T19:30:35.154Z,48.50
2022-07-28T19:33:03.198Z,48.50
2022-07-28T19:35:30.496Z,48.50
2022-07-28T19:38:00.141Z,48.60
2022-07-28T19:40:31.966Z,48.60
2022-07-28T19:43:00.270Z,48.60
2022-07-28T19:45:27.584Z,48.60
2022-07-28T19:47:54.858Z,48.70
2022-07-28T19:50:22.141Z,48.70
2022-07-28T19:52:49.347Z,48.70
2022-07-28T19:55:17.622Z,48.70
2022-07-28T19:57:48.192Z,48.70
2022-07-28T20:00:17.668Z,48.80
2022-07-28T20:02:46.128Z,48.80
2022-07-28T20:05:13.806Z,48.80
2022-07-28T20:07:40.958Z,48.90
2022-07-28T20:10:08.366Z,48.90
2022-07-28T20:12:36.856Z,49.00
2022-07-28T20:15:06.148Z,49.00
2022-07-28T20:17:39.040Z,49.10
2022-07-28T20:20:09.814Z,49.00
2022-07-28T20:22:39.474Z,49.10
2022-07-28T20:25:09.453Z,49.10
2022-07-28T20:27:39.869Z,49.10
2022-07-28T20:30:09.315Z,49.20
2022-07-28T20:32:37.588Z,49.20
2022-07-28T20:35:05.954Z,49.20
2022-07-28T20:37:37.197Z,49.30
2022-07-28T20:40:06.427Z,49.30
2022-07-28T20:42:33.726Z,49.30
2022-07-28T20:45:00.879Z,49.40
2022-07-28T20:47:28.256Z,49.40
2022-07-28T20:49:55.749Z,49.40
2022-07-28T20:52:23.608Z,49.40
2022-07-28T20:54:54.506Z,49.50
2022-07-28T20:57:23.257Z,49.50
2022-07-28T20:59:52.273Z,49.50
2022-07-28T21:02:24.484Z,49.50
2022-07-28T21:04:52.166Z,49.50
2022-07-28T21:07:59.543Z,49.60
2022-07-28T21:10:08.529Z,49.60
2022-07-28T21:12:37.339Z,49.70
2022-07-28T21:15:08.684Z,49.70
2022-07-28T21:17:36.105Z,49.70
2022-07-28T21:20:03.824Z,49.80
2022-07-28T21:22:31.127Z,49.80
2022-07-28T21:24:59.261Z,49.80
2022-07-28T21:27:26.477Z,49.90
2022-07-28T21:32:19.503Z,49.90
2022-07-28T21:34:46.782Z,49.90
2022-07-28T21:37:14.302Z,49.90
2022-07-28T21:39:41.480Z,50.00
2022-07-28T21:42:09.551Z,50.00
2022-07-28T21:44:39.803Z,50.00
2022-07-28T21:47:07.194Z,50.10
2022-07-28T21:49:35.299Z,50.00
2022-07-28T21:52:02.430Z,50.20
2022-07-28T21:54:29.666Z,50.20
2022-07-28T21:56:56.899Z,50.10
2022-07-28T21:59:24.116Z,50.20
2022-07-28T22:01:51.491Z,50.20
2022-07-28T22:04:19.588Z,50.20
2022-07-28T22:06:47.072Z,50.20
2022-07-28T22:09:15.200Z,50.20
2022-07-28T22:11:42.685Z,50.20
2022-07-28T22:14:10.254Z,50.20
2022-07-28T22:16:37.656Z,50.20
2022-07-28T22:19:05.055Z,50.20
2022-07-28T22:21:32.194Z,50.20
2022-07-28T22:23:59.320Z,50.20
2022-07-28T22:26:26.577Z,50.20
2022-07-28T22:28:53.727Z,50.30
2022-07-28T22:31:21.287Z,50.30
2022-07-28T22:33:49.486Z,50.30
2022-07-28T22:36:16.654Z,50.30
2022-07-28T22:38:43.732Z,50.30
2022-07-28T22:41:10.960Z,50.30
2022-07-28T22:43:38.113Z,50.30
2022-07-28T22:46:05.258Z,50.30
2022-07-28T22:48:32.517Z,50.90
2022-07-28T22:50:59.692Z,50.40
2022-07-28T22:53:26.918Z,50.40
2022-07-28T22:55:54.099Z,50.40
2022-07-28T22:58:21.267Z,50.50
2022-07-28T23:00:49.103Z,50.50
2022-07-28T23:03:17.127Z,50.50
2022-07-28T23:05:44.300Z,50.50
2022-07-28T23:08:11.412Z,50.50
2022-07-28T23:10:40.177Z,50.50
2022-07-28T23:13:07.527Z,50.50
2022-07-28T23:15:41.134Z,50.50
2022-07-28T23:18:14.347Z,50.50
2022-07-28T23:20:41.862Z,50.50
2022-07-28T23:23:10.059Z,50.60
2022-07-28T23:25:39.673Z,50.60
2022-07-28T23:28:07.895Z,50.60
2022-07-28T23:30:38.474Z,50.60
2022-07-28T23:33:06.273Z,50.60
2022-07-28T23:35:35.702Z,50.60
2022-07-28T23:38:04.107Z,50.60
2022-07-28T23:40:31.346Z,50.60
2022-07-28T23:42:58.632Z,50.60
2022-07-28T23:45:25.785Z,50.60
2022-07-28T23:47:58.210Z,50.60
2022-07-28T23:50:26.631Z,50.70
2022-07-28T23:52:53.845Z,50.60
2022-07-28T23:55:21.152Z,50.60
2022-07-28T23:57:48.361Z,50.60
